Time,TemperatureF,DewpointF,PressureIn,WindDirection,WindDirectionDegrees,WindSpeedMPH,WindSpeedGustMPH,Humidity,HourlyPrecipIn,Conditions,Clouds,dailyrainin,SoftwareType,DateUTC
2013-07-10 07:40:00,65.0,34.0,-100.00,ENE,65,2.0,7.0,32,-99.99,,,-99.99,,2013-07-10 14:40:00,
2013-07-10 08:22:00,65.0,34.0,-100.00,ENE,65,2.0,7.0,32,-99.99,,,-99.99,,2013-07-10 15:22:00,
2013-07-10 08:34:00,65.0,34.0,-100.00,ENE,65,2.0,7.0,32,-99.99,,,-99.99,,2013-07-10 15:34:00,
2013-07-10 15:01:00,84.0,30.0,-100.00,North,-999,-999.0,-999.0,14,-99.99,,,-99.99,,2013-07-10 22:01:00,
2013-07-10 15:11:00,84.0,30.0,-100.00,South,176,9.0,27.0,14,-99.99,,,-99.99,,2013-07-10 22:11:00,
2013-07-10 15:21:00,84.0,30.0,-100.00,South,176,9.0,27.0,14,-99.99,,,-99.99,,2013-07-10 22:21:00,
2013-07-10 15:33:00,84.0,30.0,-100.00,South,176,9.0,27.0,14,-99.99,,,-99.99,,2013-07-10 22:33:00,
2013-07-10 16:22:00,82.0,30.0,-100.00,SW,234,6.0,16.0,15,-99.99,,,-99.99,,2013-07-10 23:22:00,
2013-07-10 16:52:00,82.0,30.0,-100.00,SW,234,6.0,16.0,15,-99.99,,,-99.99,,2013-07-10 23:52:00,
2013-07-10 17:01:00,82.0,30.0,-100.00,SW,234,6.0,16.0,15,-99.99,,,-99.99,,2013-07-11 00:01:00,
2013-07-10 17:11:00,82.0,30.0,-100.00,SW,234,6.0,16.0,15,-99.99,,,-99.99,,2013-07-11 00:11:00,
2013-07-10 18:01:00,82.0,31.0,-100.00,South,171,6.0,17.0,16,-99.99,,,-99.99,,2013-07-11 01:01:00,
2013-07-10 18:11:00,82.0,31.0,-100.00,South,171,6.0,17.0,16,-99.99,,,-99.99,,2013-07-11 01:11:00,
2013-07-10 18:32:00,82.0,31.0,-100.00,SSE,154,6.0,15.0,16,-99.99,,,-99.99,,2013-07-11 01:32:00,
2013-07-10 18:43:00,81.0,31.0,-100.00,SSE,157,5.0,15.0,16,-99.99,,,-99.99,,2013-07-11 01:43:00,
2013-07-10 18:52:00,81.0,31.0,-100.00,SSE,157,5.0,15.0,16,-99.99,,,-99.99,,2013-07-11 01:52:00,
2013-07-10 19:02:00,80.0,31.0,-100.00,South,176,8.0,14.0,17,-99.99,,,-99.99,,2013-07-11 02:02:00,
2013-07-10 19:11:00,80.0,31.0,-100.00,South,176,8.0,14.0,17,-99.99,,,-99.99,,2013-07-11 02:11:00,
2013-07-10 19:32:00,79.0,30.0,-100.00,South,174,9.0,17.0,17,-99.99,,,-99.99,,2013-07-11 02:32:00,
2013-07-10 19:33:00,78.0,31.0,-100.00,South,176,7.0,13.0,18,-99.99,,,-99.99,,2013-07-11 02:33:00,
2013-07-10 19:43:00,79.0,32.0,-100.00,South,182,8.0,19.0,18,-99.99,,,-99.99,,2013-07-11 02:43:00,
2013-07-10 19:53:00,79.0,32.0,-100.00,South,182,8.0,19.0,18,-99.99,,,-99.99,,2013-07-11 02:53:00,
2013-07-10 20:01:00,78.0,31.0,-100.00,South,176,7.0,13.0,18,-99.99,,,-99.99,,2013-07-11 03:01:00,
2013-07-10 20:11:00,78.0,31.0,-100.00,South,176,7.0,13.0,18,-99.99,,,-99.99,,2013-07-11 03:11:00,
2013-07-10 20:21:00,78.0,31.0,-100.00,South,176,7.0,13.0,18,-99.99,,,-99.99,,2013-07-11 03:21:00,
2013-07-10 21:01:00,77.0,32.0,-100.00,North,-999,-999.0,-999.0,19,-99.99,,,-99.99,,2013-07-11 04:01:00,
2013-07-10 21:12:00,77.0,32.0,-100.00,SSW,192,4.0,11.0,19,-99.99,,,-99.99,,2013-07-11 04:12:00,
2013-07-10 21:22:00,77.0,32.0,-100.00,SSW,192,4.0,11.0,19,-99.99,,,-99.99,,2013-07-11 04:22:00,
2013-07-10 21:32:00,76.0,32.0,-100.00,SSW,196,2.0,7.0,20,-99.99,,,-99.99,,2013-07-11 04:32:00,
2013-07-10 21:42:00,76.0,32.0,-100.00,SSW,196,2.0,7.0,20,-99.99,,,-99.99,,2013-07-11 04:42:00,
2013-07-10 22:01:00,76.0,31.0,-100.00,WSW,254,4.0,13.0,19,-99.99,,,-99.99,,2013-07-11 05:01:00,
2013-07-10 22:12:00,75.0,31.0,-100.00,SSW,203,1.0,5.0,20,-99.99,,,-99.99,,2013-07-11 05:12:00,
2013-07-10 22:22:00,75.0,31.0,-100.00,SSW,203,1.0,5.0,20,-99.99,,,-99.99,,2013-07-11 05:22:00,
2013-07-10 22:32:00,76.0,32.0,-100.00,South,186,3.0,8.0,20,-99.99,,,-99.99,,2013-07-11 05:32:00,
2013-07-10 22:43:00,76.0,32.0,-100.00,South,186,3.0,8.0,20,-99.99,,,-99.99,,2013-07-11 05:43:00,
2013-07-10 23:01:00,74.0,32.0,-100.00,NW,312,4.0,7.0,21,-99.99,,,-99.99,,2013-07-11 06:01:00,
2013-07-10 23:11:00,73.0,34.0,-100.00,NW,306,3.0,8.0,24,-99.99,,,-99.99,,2013-07-11 06:11:00,
2013-07-10 23:22:00,73.0,34.0,-100.00,NW,306,3.0,8.0,24,-99.99,,,-99.99,,2013-07-11 06:22:00,
2013-07-10 23:32:00,73.0,34.0,-100.00,NW,306,3.0,8.0,24,-99.99,,,-99.99,,2013-07-11 06:32:00,
2013-07-10 23:43:00,73.0,32.0,-100.00,WNW,298,6.0,10.0,22,-99.99,,,-99.99,,2013-07-11 06:43:00,
2013-07-10 23:53:00,73.0,32.0,-100.00,WNW,298,6.0,10.0,22,-99.99,,,-99.99,,2013-07-11 06:53:00,